sensor_id;sensor_type;location;lat;lon;timestamp;pressure;altitude;pressure_sealevel;temperature;humidity
47430;BME280;33181;49.246;7.372;2023-05-11T00:00:33;98663.31;;;11.35;81.77
47430;BME280;33181;49.246;7.372;2023-05-11T00:02:58;98660.94;;;11.32;82.02
47430;BME280;33181;49.246;7.372;2023-05-11T00:05:24;98659.91;;;11.23;82.98
47430;BME280;33181;49.246;7.372;2023-05-11T00:07:50;98658.63;;;11.18;83.52
47430;BME280;33181;49.246;7.372;2023-05-11T00:10:16;98660.28;;;11.19;83.27
47430;BME280;33181;49.246;7.372;2023-05-11T00:12:42;98661.97;;;11.20;82.85
47430;BME280;33181;49.246;7.372;2023-05-11T00:15:08;98659.84;;;11.13;82.81
47430;BME280;33181;49.246;7.372;2023-05-11T00:17:34;98663.69;;;11.09;83.00
47430;BME280;33181;49.246;7.372;2023-05-11T00:19:59;98657.75;;;11.07;83.36
47430;BME280;33181;49.246;7.372;2023-05-11T00:22:25;98662.75;;;11.10;83.31
47430;BME280;33181;49.246;7.372;2023-05-11T00:24:51;98666.31;;;11.09;83.39
47430;BME280;33181;49.246;7.372;2023-05-11T00:27:17;98660.31;;;10.98;83.73
47430;BME280;33181;49.246;7.372;2023-05-11T00:29:43;98656.41;;;10.92;84.12
47430;BME280;33181;49.246;7.372;2023-05-11T00:32:08;98657.94;;;10.95;84.45
47430;BME280;33181;49.246;7.372;2023-05-11T00:34:34;98657.13;;;10.94;84.20
47430;BME280;33181;49.246;7.372;2023-05-11T00:37:00;98655.88;;;10.98;84.41
47430;BME280;33181;49.246;7.372;2023-05-11T00:39:26;98648.75;;;10.89;84.29
47430;BME280;33181;49.246;7.372;2023-05-11T00:41:52;98650.44;;;10.90;84.68
47430;BME280;33181;49.246;7.372;2023-05-11T00:44:18;98649.59;;;10.89;84.76
47430;BME280;33181;49.246;7.372;2023-05-11T00:46:44;98656.91;;;10.86;84.69
47430;BME280;33181;49.246;7.372;2023-05-11T00:49:09;98654.69;;;10.81;85.59
47430;BME280;33181;49.246;7.372;2023-05-11T00:51:36;98654.38;;;10.84;85.97
47430;BME280;33181;49.246;7.372;2023-05-11T00:54:02;98655.25;;;10.85;85.90
47430;BME280;33181;49.246;7.372;2023-05-11T00:56:28;98667.03;;;10.90;85.74
47430;BME280;33181;49.246;7.372;2023-05-11T00:58:56;98658.88;;;10.94;85.61
47430;BME280;33181;49.246;7.372;2023-05-11T01:01:22;98666.25;;;11.00;85.58
47430;BME280;33181;49.246;7.372;2023-05-11T01:03:48;98663.94;;;11.06;85.79
47430;BME280;33181;49.246;7.372;2023-05-11T01:07:24;98656.50;;;11.11;85.86
47430;BME280;33181;49.246;7.372;2023-05-11T01:12:52;98662.16;;;11.07;85.24
47430;BME280;33181;49.246;7.372;2023-05-11T01:15:32;98668.50;;;11.04;86.11
47430;BME280;33181;49.246;7.372;2023-05-11T01:21:01;98664.41;;;11.11;86.82
47430;BME280;33181;49.246;7.372;2023-05-11T01:32:25;98654.97;;;11.30;86.25
47430;BME280;33181;49.246;7.372;2023-05-11T01:35:13;98660.66;;;11.35;86.50
47430;BME280;33181;49.246;7.372;2023-05-11T01:37:50;98651.81;;;11.36;85.91
47430;BME280;33181;49.246;7.372;2023-05-11T01:40:23;98651.72;;;11.17;86.63
47430;BME280;33181;49.246;7.372;2023-05-11T01:45:26;98652.53;;;10.96;89.31
47430;BME280;33181;49.246;7.372;2023-05-11T01:47:54;98658.44;;;10.88;90.75
47430;BME280;33181;49.246;7.372;2023-05-11T01:50:23;98653.81;;;10.81;91.71
47430;BME280;33181;49.246;7.372;2023-05-11T01:52:51;98656.50;;;10.70;93.17
47430;BME280;33181;49.246;7.372;2023-05-11T01:55:21;98661.19;;;10.66;94.13
47430;BME280;33181;49.246;7.372;2023-05-11T01:57:50;98653.88;;;10.70;94.32
47430;BME280;33181;49.246;7.372;2023-05-11T02:00:17;98656.34;;;10.82;93.83
47430;BME280;33181;49.246;7.372;2023-05-11T02:02:44;98654.47;;;10.94;93.42
47430;BME280;33181;49.246;7.372;2023-05-11T02:05:15;98659.06;;;10.81;94.26
47430;BME280;33181;49.246;7.372;2023-05-11T02:07:45;98657.88;;;10.85;93.97
47430;BME280;33181;49.246;7.372;2023-05-11T02:10:12;98657.22;;;10.93;93.89
47430;BME280;33181;49.246;7.372;2023-05-11T02:12:40;98657.84;;;11.06;93.38
47430;BME280;33181;49.246;7.372;2023-05-11T02:15:09;98645.47;;;10.97;93.33
47430;BME280;33181;49.246;7.372;2023-05-11T02:17:39;98648.50;;;10.92;93.83
47430;BME280;33181;49.246;7.372;2023-05-11T02:20:08;98647.47;;;10.83;94.64
47430;BME280;33181;49.246;7.372;2023-05-11T02:22:36;98648.72;;;11.00;94.18
47430;BME280;33181;49.246;7.372;2023-05-11T02:25:03;98648.78;;;11.10;93.82
47430;BME280;33181;49.246;7.372;2023-05-11T02:27:30;98647.59;;;11.24;93.51
47430;BME280;33181;49.246;7.372;2023-05-11T02:29:57;98649.59;;;11.10;93.73
47430;BME280;33181;49.246;7.372;2023-05-11T02:32:24;98643.00;;;11.16;93.35
47430;BME280;33181;49.246;7.372;2023-05-11T02:35:01;98644.66;;;11.17;93.19
47430;BME280;33181;49.246;7.372;2023-05-11T02:37:30;98653.94;;;11.21;92.50
47430;BME280;33181;49.246;7.372;2023-05-11T02:40:03;98637.06;;;11.24;92.58
47430;BME280;33181;49.246;7.372;2023-05-11T02:42:37;98644.56;;;11.28;92.13
47430;BME280;33181;49.246;7.372;2023-05-11T02:45:07;98647.19;;;11.28;91.72
47430;BME280;33181;49.246;7.372;2023-05-11T02:47:50;98644.69;;;11.27;91.83
47430;BME280;33181;49.246;7.372;2023-05-11T02:50:18;98644.97;;;11.24;92.03
47430;BME280;33181;49.246;7.372;2023-05-11T02:52:48;98649.50;;;11.22;92.43
47430;BME280;33181;49.246;7.372;2023-05-11T02:55:15;98652.84;;;11.24;92.24
47430;BME280;33181;49.246;7.372;2023-05-11T02:57:43;98654.34;;;11.17;92.28
47430;BME280;33181;49.246;7.372;2023-05-11T03:00:10;98661.91;;;11.10;92.98
47430;BME280;33181;49.246;7.372;2023-05-11T03:02:37;98653.50;;;10.95;93.66
47430;BME280;33181;49.246;7.372;2023-05-11T03:05:03;98649.22;;;10.94;94.20
47430;BME280;33181;49.246;7.372;2023-05-11T03:07:33;98653.38;;;10.97;94.26
47430;BME280;33181;49.246;7.372;2023-05-11T03:10:01;98647.78;;;10.90;94.40
47430;BME280;33181;49.246;7.372;2023-05-11T03:12:28;98645.81;;;11.03;94.20
47430;BME280;33181;49.246;7.372;2023-05-11T03:14:58;98646.56;;;11.15;93.86
47430;BME280;33181;49.246;7.372;2023-05-11T03:17:27;98636.09;;;11.25;93.61
47430;BME280;33181;49.246;7.372;2023-05-11T03:19:55;98640.16;;;11.29;93.33
47430;BME280;33181;49.246;7.372;2023-05-11T03:22:21;98639.56;;;11.25;92.91
47430;BME280;33181;49.246;7.372;2023-05-11T03:24:48;98645.38;;;11.19;91.80
47430;BME280;33181;49.246;7.372;2023-05-11T03:27:15;98657.53;;;10.99;93.25
47430;BME280;33181;49.246;7.372;2023-05-11T03:29:42;98654.53;;;10.83;95.45
47430;BME280;33181;49.246;7.372;2023-05-11T03:32:10;98651.59;;;10.97;95.14
47430;BME280;33181;49.246;7.372;2023-05-11T03:34:36;98651.75;;;10.84;95.04
47430;BME280;33181;49.246;7.372;2023-05-11T03:37:07;98654.19;;;10.55;97.20
47430;BME280;33181;49.246;7.372;2023-05-11T03:39:35;98653.41;;;10.43;98.88
47430;BME280;33181;49.246;7.372;2023-05-11T03:42:04;98655.16;;;10.54;98.50
47430;BME280;33181;49.246;7.372;2023-05-11T03:44:32;98651.13;;;10.71;97.75
47430;BME280;33181;49.246;7.372;2023-05-11T03:46:59;98644.28;;;10.80;97.18
47430;BME280;33181;49.246;7.372;2023-05-11T03:49:28;98643.56;;;10.78;97.32
47430;BME280;33181;49.246;7.372;2023-05-11T03:51:55;98643.63;;;10.87;96.81
47430;BME280;33181;49.246;7.372;2023-05-11T03:54:22;98642.44;;;10.92;96.22
47430;BME280;33181;49.246;7.372;2023-05-11T03:56:48;98636.50;;;10.99;95.83
47430;BME280;33181;49.246;7.372;2023-05-11T03:59:14;98625.75;;;11.02;95.99
47430;BME280;33181;49.246;7.372;2023-05-11T04:01:42;98628.13;;;10.84;95.77
47430;BME280;33181;49.246;7.372;2023-05-11T04:04:08;98634.28;;;10.74;96.73
47430;BME280;33181;49.246;7.372;2023-05-11T04:06:33;98624.78;;;10.61;96.84
47430;BME280;33181;49.246;7.372;2023-05-11T04:08:59;98633.06;;;10.57;97.62
47430;BME280;33181;49.246;7.372;2023-05-11T04:11:25;98636.84;;;10.64;97.34
47430;BME280;33181;49.246;7.372;2023-05-11T04:13:52;98641.25;;;10.63;97.43
47430;BME280;33181;49.246;7.372;2023-05-11T04:16:17;98638.06;;;10.81;96.91
47430;BME280;33181;49.246;7.372;2023-05-11T04:18:43;98632.50;;;10.95;96.53
47430;BME280;33181;49.246;7.372;2023-05-11T04:21:09;98635.84;;;10.97;95.74
47430;BME280;33181;49.246;7.372;2023-05-11T04:23:35;98638.63;;;10.84;95.88
47430;BME280;33181;49.246;7.372;2023-05-11T04:26:01;98637.94;;;10.82;95.82
47430;BME280;33181;49.246;7.372;2023-05-11T04:28:27;98643.63;;;10.87;95.86
47430;BME280;33181;49.246;7.372;2023-05-11T04:30:55;98643.19;;;10.82;96.16
47430;BME280;33181;49.246;7.372;2023-05-11T04:33:22;98640.63;;;10.71;96.83
47430;BME280;33181;49.246;7.372;2023-05-11T04:35:50;98643.06;;;10.84;96.65
47430;BME280;33181;49.246;7.372;2023-05-11T04:38:17;98638.25;;;10.89;96.05
47430;BME280;33181;49.246;7.372;2023-05-11T04:40:43;98650.50;;;10.79;96.36
47430;BME280;33181;49.246;7.372;2023-05-11T04:43:09;98641.00;;;10.87;96.08
47430;BME280;33181;49.246;7.372;2023-05-11T04:45:34;98640.41;;;10.84;96.13
47430;BME280;33181;49.246;7.372;2023-05-11T04:48:00;98644.41;;;10.99;95.60
47430;BME280;33181;49.246;7.372;2023-05-11T04:50:26;98648.63;;;11.11;94.53
47430;BME280;33181;49.246;7.372;2023-05-11T04:52:52;98658.38;;;11.21;94.14
47430;BME280;33181;49.246;7.372;2023-05-11T04:55:18;98647.06;;;11.30;94.48
47430;BME280;33181;49.246;7.372;2023-05-11T04:57:44;98653.59;;;11.35;93.95
47430;BME280;33181;49.246;7.372;2023-05-11T05:00:10;98650.88;;;11.47;93.40
47430;BME280;33181;49.246;7.372;2023-05-11T05:02:39;98650.09;;;11.56;92.64
47430;BME280;33181;49.246;7.372;2023-05-11T05:05:05;98649.00;;;11.58;92.58
47430;BME280;33181;49.246;7.372;2023-05-11T05:07:33;98653.69;;;11.55;91.88
47430;BME280;33181;49.246;7.372;2023-05-11T05:09:59;98649.53;;;11.52;91.77
47430;BME280;33181;49.246;7.372;2023-05-11T05:12:26;98651.06;;;11.55;91.65
47430;BME280;33181;49.246;7.372;2023-05-11T05:14:52;98648.84;;;11.60;91.43
47430;BME280;33181;49.246;7.372;2023-05-11T05:17:17;98652.16;;;11.52;90.84
47430;BME280;33181;49.246;7.372;2023-05-11T05:19:43;98656.06;;;11.58;90.73
47430;BME280;33181;49.246;7.372;2023-05-11T05:22:09;98658.84;;;11.66;90.43
47430;BME280;33181;49.246;7.372;2023-05-11T05:24:35;98656.75;;;11.60;90.30
47430;BME280;33181;49.246;7.372;2023-05-11T05:27:01;98654.81;;;11.62;90.38
47430;BME280;33181;49.246;7.372;2023-05-11T05:29:27;98666.06;;;11.64;90.74
47430;BME280;33181;49.246;7.372;2023-05-11T05:31:52;98668.56;;;11.75;90.37
47430;BME280;33181;49.246;7.372;2023-05-11T05:34:18;98663.59;;;11.82;90.08
47430;BME280;33181;49.246;7.372;2023-05-11T05:36:44;98665.72;;;11.88;90.15
47430;BME280;33181;49.246;7.372;2023-05-11T05:39:10;98670.19;;;11.97;89.67
47430;BME280;33181;49.246;7.372;2023-05-11T05:41:37;98665.63;;;11.99;89.51
47430;BME280;33181;49.246;7.372;2023-05-11T05:44:03;98667.59;;;12.17;88.95
47430;BME280;33181;49.246;7.372;2023-05-11T05:46:28;98670.94;;;12.19;88.24
47430;BME280;33181;49.246;7.372;2023-05-11T05:48:54;98670.81;;;12.11;87.39
47430;BME280;33181;49.246;7.372;2023-05-11T05:51:21;98663.88;;;12.19;87.52
47430;BME280;33181;49.246;7.372;2023-05-11T05:53:47;98667.78;;;12.35;87.16
47430;BME280;33181;49.246;7.372;2023-05-11T05:56:13;98664.75;;;12.39;87.17
47430;BME280;33181;49.246;7.372;2023-05-11T05:58:38;98666.56;;;12.48;87.03
47430;BME280;33181;49.246;7.372;2023-05-11T06:01:04;98668.31;;;12.28;86.52
47430;BME280;33181;49.246;7.372;2023-05-11T06:03:30;98671.13;;;12.37;86.37
47430;BME280;33181;49.246;7.372;2023-05-11T06:05:56;98676.66;;;12.43;86.43
47430;BME280;33181;49.246;7.372;2023-05-11T06:08:22;98678.75;;;12.49;86.03
47430;BME280;33181;49.246;7.372;2023-05-11T06:10:48;98676.81;;;12.51;85.41
47430;BME280;33181;49.246;7.372;2023-05-11T06:13:14;98676.38;;;12.46;85.38
47430;BME280;33181;49.246;7.372;2023-05-11T06:15:39;98684.28;;;12.46;86.04
47430;BME280;33181;49.246;7.372;2023-05-11T06:18:05;98690.66;;;12.44;85.25
47430;BME280;33181;49.246;7.372;2023-05-11T06:20:31;98683.31;;;12.47;85.70
47430;BME280;33181;49.246;7.372;2023-05-11T06:22:57;98694.00;;;12.46;85.68
47430;BME280;33181;49.246;7.372;2023-05-11T06:25:23;98694.28;;;12.52;85.81
47430;BME280;33181;49.246;7.372;2023-05-11T06:27:49;98696.09;;;12.52;85.05
47430;BME280;33181;49.246;7.372;2023-05-11T06:30:19;98692.63;;;12.61;84.71
47430;BME280;33181;49.246;7.372;2023-05-11T06:32:48;98687.63;;;12.78;84.88
47430;BME280;33181;49.246;7.372;2023-05-11T06:35:19;98692.63;;;12.81;83.94
47430;BME280;33181;49.246;7.372;2023-05-11T06:37:46;98691.66;;;12.82;84.33
47430;BME280;33181;49.246;7.372;2023-05-11T06:40:12;98694.56;;;12.88;83.90
47430;BME280;33181;49.246;7.372;2023-05-11T06:42:41;98694.16;;;12.83;83.49
47430;BME280;33181;49.246;7.372;2023-05-11T06:45:07;98697.91;;;12.90;83.33
47430;BME280;33181;49.246;7.372;2023-05-11T06:47:33;98690.53;;;12.84;82.76
47430;BME280;33181;49.246;7.372;2023-05-11T06:49:59;98699.13;;;12.76;82.96
47430;BME280;33181;49.246;7.372;2023-05-11T06:52:25;98691.38;;;12.75;83.28
47430;BME280;33181;49.246;7.372;2023-05-11T06:54:51;98692.75;;;12.89;82.57
47430;BME280;33181;49.246;7.372;2023-05-11T06:57:17;98687.75;;;13.05;82.20
47430;BME280;33181;49.246;7.372;2023-05-11T06:59:43;98679.25;;;13.21;80.81
47430;BME280;33181;49.246;7.372;2023-05-11T07:02:09;98679.69;;;13.26;79.60
47430;BME280;33181;49.246;7.372;2023-05-11T07:04:35;98685.59;;;13.48;79.82
47430;BME280;33181;49.246;7.372;2023-05-11T07:07:02;98687.78;;;13.62;78.11
47430;BME280;33181;49.246;7.372;2023-05-11T07:09:28;98676.97;;;13.83;78.25
47430;BME280;33181;49.246;7.372;2023-05-11T07:11:55;98676.31;;;13.81;76.98
47430;BME280;33181;49.246;7.372;2023-05-11T07:14:20;98679.34;;;13.86;76.42
47430;BME280;33181;49.246;7.372;2023-05-11T07:16:46;98684.81;;;14.02;75.54
47430;BME280;33181;49.246;7.372;2023-05-11T07:19:12;98685.63;;;14.03;75.22
47430;BME280;33181;49.246;7.372;2023-05-11T07:21:38;98680.16;;;14.14;75.27
47430;BME280;33181;49.246;7.372;2023-05-11T07:24:05;98682.22;;;14.20;75.11
47430;BME280;33181;49.246;7.372;2023-05-11T07:26:30;98678.44;;;14.23;74.46
47430;BME280;33181;49.246;7.372;2023-05-11T07:28:57;98679.09;;;14.25;74.92
47430;BME280;33181;49.246;7.372;2023-05-11T07:31:22;98678.44;;;14.41;74.09
47430;BME280;33181;49.246;7.372;2023-05-11T07:33:48;98675.41;;;14.63;73.76
47430;BME280;33181;49.246;7.372;2023-05-11T07:36:14;98683.00;;;14.48;73.19
47430;BME280;33181;49.246;7.372;2023-05-11T07:38:40;98686.06;;;14.53;73.67
47430;BME280;33181;49.246;7.372;2023-05-11T07:41:05;98679.50;;;14.57;74.14
47430;BME280;33181;49.246;7.372;2023-05-11T07:43:32;98683.69;;;14.50;73.68
47430;BME280;33181;49.246;7.372;2023-05-11T07:45:58;98672.09;;;14.16;74.30
47430;BME280;33181;49.246;7.372;2023-05-11T07:48:23;98681.97;;;14.13;74.78
47430;BME280;33181;49.246;7.372;2023-05-11T07:50:49;98679.38;;;14.49;73.82
47430;BME280;33181;49.246;7.372;2023-05-11T07:53:15;98673.81;;;14.70;72.52
47430;BME280;33181;49.246;7.372;2023-05-11T07:55:41;98678.28;;;14.70;72.02
47430;BME280;33181;49.246;7.372;2023-05-11T07:58:07;98669.50;;;14.87;72.46
47430;BME280;33181;49.246;7.372;2023-05-11T08:00:34;98671.84;;;15.16;72.29
47430;BME280;33181;49.246;7.372;2023-05-11T08:03:01;98677.38;;;15.49;71.14
47430;BME280;33181;49.246;7.372;2023-05-11T08:05:29;98673.97;;;15.65;68.98
47430;BME280;33181;49.246;7.372;2023-05-11T08:08:02;98671.94;;;15.85;68.49
47430;BME280;33181;49.246;7.372;2023-05-11T08:10:30;98671.66;;;15.96;67.69
47430;BME280;33181;49.246;7.372;2023-05-11T08:12:59;98667.50;;;15.93;68.48
47430;BME280;33181;49.246;7.372;2023-05-11T08:15:25;98673.34;;;16.05;67.31
47430;BME280;33181;49.246;7.372;2023-05-11T08:17:56;98666.41;;;16.12;67.26
47430;BME280;33181;49.246;7.372;2023-05-11T08:20:25;98665.78;;;16.27;68.11
47430;BME280;33181;49.246;7.372;2023-05-11T08:22:52;98667.47;;;16.44;67.18
47430;BME280;33181;49.246;7.372;2023-05-11T08:25:18;98667.81;;;16.57;66.33
47430;BME280;33181;49.246;7.372;2023-05-11T08:27:45;98670.47;;;16.74;66.34
47430;BME280;33181;49.246;7.372;2023-05-11T08:30:11;98669.94;;;16.29;66.01
47430;BME280;33181;49.246;7.372;2023-05-11T08:32:38;98660.44;;;16.10;68.23
47430;BME280;33181;49.246;7.372;2023-05-11T08:35:05;98668.78;;;16.24;67.24
47430;BME280;33181;49.246;7.372;2023-05-11T08:37:32;98658.19;;;16.48;66.10
47430;BME280;33181;49.246;7.372;2023-05-11T08:39:59;98650.78;;;16.76;65.25
47430;BME280;33181;49.246;7.372;2023-05-11T08:42:26;98653.78;;;17.06;64.98
47430;BME280;33181;49.246;7.372;2023-05-11T08:44:55;98651.25;;;17.21;62.94
47430;BME280;33181;49.246;7.372;2023-05-11T08:47:24;98654.34;;;17.57;62.73
47430;BME280;33181;49.246;7.372;2023-05-11T08:49:51;98651.97;;;17.78;61.72
47430;BME280;33181;49.246;7.372;2023-05-11T08:52:18;98652.47;;;17.82;60.56
47430;BME280;33181;49.246;7.372;2023-05-11T08:54:45;98660.88;;;17.94;59.58
47430;BME280;33181;49.246;7.372;2023-05-11T08:57:13;98646.59;;;17.87;59.30
47430;BME280;33181;49.246;7.372;2023-05-11T08:59:40;98649.63;;;18.15;59.99
47430;BME280;33181;49.246;7.372;2023-05-11T09:02:15;98655.03;;;18.29;59.38
47430;BME280;33181;49.246;7.372;2023-05-11T09:04:44;98655.81;;;18.38;58.47
47430;BME280;33181;49.246;7.372;2023-05-11T09:07:11;98657.13;;;18.42;58.66
47430;BME280;33181;49.246;7.372;2023-05-11T09:09:39;98658.88;;;18.50;58.06
47430;BME280;33181;49.246;7.372;2023-05-11T09:12:08;98656.50;;;18.63;57.07
47430;BME280;33181;49.246;7.372;2023-05-11T09:14:34;98662.88;;;18.54;57.34
47430;BME280;33181;49.246;7.372;2023-05-11T09:17:01;98656.78;;;18.45;57.55
47430;BME280;33181;49.246;7.372;2023-05-11T09:19:29;98651.09;;;18.48;59.32
47430;BME280;33181;49.246;7.372;2023-05-11T09:21:55;98658.38;;;18.55;58.30
47430;BME280;33181;49.246;7.372;2023-05-11T09:24:21;98651.56;;;18.29;57.75
47430;BME280;33181;49.246;7.372;2023-05-11T09:26:47;98649.50;;;18.08;58.32
47430;BME280;33181;49.246;7.372;2023-05-11T09:29:17;98650.94;;;18.19;58.88
47430;BME280;33181;49.246;7.372;2023-05-11T09:31:45;98650.00;;;18.35;59.27
47430;BME280;33181;49.246;7.372;2023-05-11T09:34:18;98655.63;;;18.40;58.01
47430;BME280;33181;49.246;7.372;2023-05-11T09:36:46;98647.50;;;18.10;58.29
47430;BME280;33181;49.246;7.372;2023-05-11T09:39:14;98643.38;;;18.08;58.99
47430;BME280;33181;49.246;7.372;2023-05-11T09:41:40;98648.22;;;18.04;58.37
47430;BME280;33181;49.246;7.372;2023-05-11T09:44:14;98644.69;;;17.64;58.64
47430;BME280;33181;49.246;7.372;2023-05-11T09:46:43;98646.56;;;17.39;60.24
47430;BME280;33181;49.246;7.372;2023-05-11T09:49:11;98643.72;;;17.57;60.42
47430;BME280;33181;49.246;7.372;2023-05-11T09:51:39;98636.91;;;17.54;59.98
47430;BME280;33181;49.246;7.372;2023-05-11T09:54:20;98642.56;;;17.59;58.92
47430;BME280;33181;49.246;7.372;2023-05-11T09:56:52;98640.09;;;17.42;58.82
47430;BME280;33181;49.246;7.372;2023-05-11T09:59:41;98638.59;;;17.47;61.00
47430;BME280;33181;49.246;7.372;2023-05-11T10:02:27;98635.34;;;17.85;58.57
47430;BME280;33181;49.246;7.372;2023-05-11T10:04:56;98633.16;;;17.88;57.33
47430;BME280;33181;49.246;7.372;2023-05-11T10:07:29;98632.16;;;17.89;58.65
47430;BME280;33181;49.246;7.372;2023-05-11T10:10:01;98634.16;;;18.18;58.81
47430;BME280;33181;49.246;7.372;2023-05-11T10:12:28;98641.63;;;18.23;57.72
47430;BME280;33181;49.246;7.372;2023-05-11T10:15:02;98639.91;;;18.30;57.13
47430;BME280;33181;49.246;7.372;2023-05-11T10:17:28;98630.44;;;18.04;56.21
47430;BME280;33181;49.246;7.372;2023-05-11T10:20:00;98632.72;;;18.08;56.87
47430;BME280;33181;49.246;7.372;2023-05-11T10:22:28;98627.19;;;18.17;56.32
47430;BME280;33181;49.246;7.372;2023-05-11T10:24:58;98623.16;;;17.98;56.67
47430;BME280;33181;49.246;7.372;2023-05-11T10:27:25;98627.88;;;18.11;56.96
47430;BME280;33181;49.246;7.372;2023-05-11T10:29:54;98621.34;;;18.22;56.38
47430;BME280;33181;49.246;7.372;2023-05-11T10:32:20;98624.84;;;18.45;56.44
47430;BME280;33181;49.246;7.372;2023-05-11T10:34:47;98624.56;;;18.63;56.24
47430;BME280;33181;49.246;7.372;2023-05-11T10:37:15;98626.00;;;18.74;55.58
47430;BME280;33181;49.246;7.372;2023-05-11T10:39:43;98619.03;;;18.73;55.69
47430;BME280;33181;49.246;7.372;2023-05-11T10:45:21;98623.56;;;18.41;55.61
47430;BME280;33181;49.246;7.372;2023-05-11T10:48:13;98617.53;;;18.47;56.49
47430;BME280;33181;49.246;7.372;2023-05-11T10:53:48;98622.19;;;18.45;56.28
47430;BME280;33181;49.246;7.372;2023-05-11T10:59:15;98623.56;;;18.41;54.59
47430;BME280;33181;49.246;7.372;2023-05-11T11:01:46;98620.13;;;18.33;54.77
47430;BME280;33181;49.246;7.372;2023-05-11T11:04:15;98609.47;;;18.33;55.98
47430;BME280;33181;49.246;7.372;2023-05-11T11:06:43;98603.56;;;18.22;54.80
47430;BME280;33181;49.246;7.372;2023-05-11T11:09:15;98615.63;;;18.10;55.88
47430;BME280;33181;49.246;7.372;2023-05-11T11:11:45;98609.19;;;17.96;55.75
47430;BME280;33181;49.246;7.372;2023-05-11T11:14:13;98605.97;;;17.78;55.80
47430;BME280;33181;49.246;7.372;2023-05-11T11:16:40;98603.41;;;17.93;55.58
47430;BME280;33181;49.246;7.372;2023-05-11T11:21:56;98599.25;;;18.21;55.27
47430;BME280;33181;49.246;7.372;2023-05-11T11:27:13;98599.53;;;18.49;55.69
47430;BME280;33181;49.246;7.372;2023-05-11T11:29:39;98591.97;;;18.61;54.68
47430;BME280;33181;49.246;7.372;2023-05-11T11:34:48;98587.47;;;18.62;54.48
47430;BME280;33181;49.246;7.372;2023-05-11T11:37:15;98588.53;;;18.75;54.11
47430;BME280;33181;49.246;7.372;2023-05-11T11:44:39;98590.75;;;18.49;56.02
47430;BME280;33181;49.246;7.372;2023-05-11T11:47:16;98581.72;;;18.35;56.08
47430;BME280;33181;49.246;7.372;2023-05-11T11:49:50;98585.34;;;18.34;56.94
47430;BME280;33181;49.246;7.372;2023-05-11T11:54:56;98592.25;;;17.97;57.46
47430;BME280;33181;49.246;7.372;2023-05-11T12:02:32;98591.69;;;17.71;58.92
47430;BME280;33181;49.246;7.372;2023-05-11T12:05:18;98594.13;;;17.41;58.85
47430;BME280;33181;49.246;7.372;2023-05-11T12:07:49;98600.53;;;17.07;59.14
47430;BME280;33181;49.246;7.372;2023-05-11T12:10:19;98597.91;;;16.83;61.19
47430;BME280;33181;49.246;7.372;2023-05-11T12:12:50;98609.13;;;16.28;63.34
47430;BME280;33181;49.246;7.372;2023-05-11T12:15:29;98612.75;;;16.10;64.80
47430;BME280;33181;49.246;7.372;2023-05-11T12:17:58;98600.28;;;15.86;66.50
47430;BME280;33181;49.246;7.372;2023-05-11T12:20:27;98600.75;;;15.82;69.04
47430;BME280;33181;49.246;7.372;2023-05-11T12:22:53;98599.59;;;15.50;71.06
47430;BME280;33181;49.246;7.372;2023-05-11T12:25:19;98592.59;;;15.41;72.69
47430;BME280;33181;49.246;7.372;2023-05-11T12:27:50;98589.25;;;15.30;73.44
47430;BME280;33181;49.246;7.372;2023-05-11T12:30:26;98589.88;;;15.24;72.74
47430;BME280;33181;49.246;7.372;2023-05-11T12:32:53;98588.06;;;15.25;73.19
47430;BME280;33181;49.246;7.372;2023-05-11T12:35:25;98602.09;;;15.17;72.32
47430;BME280;33181;49.246;7.372;2023-05-11T12:37:52;98591.97;;;15.13;73.12
47430;BME280;33181;49.246;7.372;2023-05-11T12:40:19;98596.81;;;15.17;72.96
47430;BME280;33181;49.246;7.372;2023-05-11T12:42:58;98603.03;;;15.08;71.71
47430;BME280;33181;49.246;7.372;2023-05-11T12:45:26;98601.69;;;15.04;70.51
47430;BME280;33181;49.246;7.372;2023-05-11T12:47:55;98601.19;;;15.09;69.88
47430;BME280;33181;49.246;7.372;2023-05-11T12:50:22;98595.50;;;15.21;68.89
47430;BME280;33181;49.246;7.372;2023-05-11T12:52:48;98586.28;;;15.34;68.38
47430;BME280;33181;49.246;7.372;2023-05-11T12:55:29;98587.00;;;15.44;68.56
47430;BME280;33181;49.246;7.372;2023-05-11T12:58:09;98582.09;;;15.57;68.62
47430;BME280;33181;49.246;7.372;2023-05-11T13:00:35;98589.56;;;15.62;69.43
47430;BME280;33181;49.246;7.372;2023-05-11T13:03:02;98584.06;;;15.55;69.54
47430;BME280;33181;49.246;7.372;2023-05-11T13:05:28;98587.34;;;15.49;68.05
47430;BME280;33181;49.246;7.372;2023-05-11T13:08:02;98578.28;;;15.51;67.21
47430;BME280;33181;49.246;7.372;2023-05-11T13:10:29;98580.78;;;15.61;66.88
47430;BME280;33181;49.246;7.372;2023-05-11T13:12:55;98572.75;;;15.71;68.92
47430;BME280;33181;49.246;7.372;2023-05-11T13:15:23;98576.25;;;15.88;67.23
47430;BME280;33181;49.246;7.372;2023-05-11T13:18:16;98581.28;;;15.99;64.97
47430;BME280;33181;49.246;7.372;2023-05-11T13:20:42;98577.94;;;15.97;65.82
47430;BME280;33181;49.246;7.372;2023-05-11T13:23:14;98574.97;;;16.00;65.08
47430;BME280;33181;49.246;7.372;2023-05-11T13:28:19;98576.78;;;16.08;64.20
47430;BME280;33181;49.246;7.372;2023-05-11T13:30:46;98568.38;;;16.29;63.94
47430;BME280;33181;49.246;7.372;2023-05-11T13:33:12;98559.28;;;16.39;62.37
47430;BME280;33181;49.246;7.372;2023-05-11T13:35:39;98561.75;;;16.65;62.12
47430;BME280;33181;49.246;7.372;2023-05-11T13:38:06;98563.59;;;16.81;62.17
47430;BME280;33181;49.246;7.372;2023-05-11T13:40:33;98548.44;;;17.06;61.56
47430;BME280;33181;49.246;7.372;2023-05-11T13:43:00;98555.19;;;17.25;60.98
47430;BME280;33181;49.246;7.372;2023-05-11T13:45:26;98554.25;;;17.49;60.94
47430;BME280;33181;49.246;7.372;2023-05-11T13:47:52;98539.88;;;17.44;59.92
47430;BME280;33181;49.246;7.372;2023-05-11T13:50:25;98538.38;;;17.41;61.04
47430;BME280;33181;49.246;7.372;2023-05-11T13:52:53;98530.22;;;17.43;60.99
47430;BME280;33181;49.246;7.372;2023-05-11T13:55:20;98535.41;;;17.67;61.66